PWSweather.com
Personal Weather Stations
Station Observations
WISCHPK61
Green Bay Schmitt Park, Green Bay, WI 54311

Green Bay Schmitt ParkGreen Bay, WI 54311

Lat: 44.514277, Lon: -87.935067

Elevation: 735

Station Type: Acu Rite Pro Weather Center model 02032C

http://greenbayweathercam.com

High Low Average
Temperature 28.8°F-1.8°F 10.2°F-12.1°F 20.6°F-6.3°F
Dew Point 28.6°F-1.9°F 7.6°F-13.6°F 19.3°F-7.1°F
Winds 2.3 mph SSE3.7 mph SSE Calm Calm 0.2 mph 0.3 mph
Wind Gusts 4.6 mph7.4 mph -- 0.5 mph0.8 mph
Humidity 99% 73% 95%
Pressure 29.14 in986.80 in 28.64 in969.90 in -
Precipitation 0.00 in0.00 in - -
Hour Temp Dew Point Humidity Winds Wind Gusts Pressure Precip Precip Rate Daily Precip Total
12:00 AM 14.7°F-9.6°C 8.8°F-12.9°C 77% Calm Calm -- 29.13 in986.5 mb - 0.00 in0.0 mm 0.00 in0.0 mm
12:15 AM 14.7°F-9.6°C 8.5°F-13.1°C 76% Calm Calm -- 29.12 in986.1 mb - 0.00 in0.0 mm 0.00 in0.0 mm
12:30 AM 14.7°F-9.6°C 7.9°F-13.4°C 74% Calm Calm -- 29.11 in985.8 mb - 0.00 in0.0 mm 0.00 in0.0 mm
12:45 AM 14.7°F-9.6°C 8.5°F-13.1°C 76% Calm Calm -- 29.10 in985.4 mb - 0.00 in0.0 mm 0.00 in0.0 mm
01:00 AM 14.7°F-9.6°C 8.2°F-13.2°C 75% Calm Calm -- 29.09 in985.1 mb - 0.00 in0.0 mm 0.00 in0.0 mm
01:15 AM 14.7°F-9.6°C 7.6°F-13.6°C 73% Calm Calm -- 29.07 in984.4 mb - 0.00 in0.0 mm 0.00 in0.0 mm
01:30 AM 14.7°F-9.6°C 7.9°F-13.4°C 74% Calm Calm -- 29.07 in984.4 mb - 0.00 in0.0 mm 0.00 in0.0 mm
01:45 AM 14.9°F-9.5°C 8.1°F-13.3°C 74% Calm Calm -- 29.07 in984.4 mb - 0.00 in0.0 mm 0.00 in0.0 mm
02:00 AM 14.9°F-9.5°C 8.7°F-12.9°C 76% Calm Calm -- 29.06 in984.1 mb - 0.00 in0.0 mm 0.00 in0.0 mm
02:15 AM 14.9°F-9.5°C 9.3°F-12.6°C 78% Calm Calm -- 29.05 in983.7 mb - 0.00 in0.0 mm 0.00 in0.0 mm
02:30 AM 15.1°F-9.4°C 10.0°F-12.2°C 80% Calm Calm -- 29.04 in983.4 mb - 0.00 in0.0 mm 0.00 in0.0 mm
02:45 AM 15.1°F-9.4°C 9.8°F-12.3°C 79% Calm Calm 1.2 mph1.9 kmh 29.04 in983.4 mb - 0.00 in0.0 mm 0.00 in0.0 mm
03:00 AM 14.9°F-9.5°C 10.1°F-12.2°C 81% Calm Calm -- 29.03 in983.1 mb - 0.00 in0.0 mm 0.00 in0.0 mm
03:15 AM 14.9°F-9.5°C 10.7°F-11.8°C 83% 1.2 mph SE1.9 kmh SE -- 29.00 in982.1 mb - 0.00 in0.0 mm 0.00 in0.0 mm
03:30 AM 14.9°F-9.5°C 10.9°F-11.7°C 84% 1.2 mph SE1.9 kmh SE 1.2 mph1.9 kmh 29.00 in982.1 mb - 0.00 in0.0 mm 0.00 in0.0 mm
03:45 AM 14.7°F-9.6°C 10.7°F-11.8°C 84% 1.2 mph SE1.9 kmh SE 2.3 mph3.7 kmh 29.00 in982.1 mb - 0.00 in0.0 mm 0.00 in0.0 mm
04:00 AM 14.7°F-9.6°C 11.3°F-11.5°C 86% 1.2 mph SE1.9 kmh SE 4.6 mph7.4 kmh 28.99 in981.7 mb - 0.00 in0.0 mm 0.00 in0.0 mm
04:15 AM 14.7°F-9.6°C 11.8°F-11.2°C 88% 1.2 mph SE1.9 kmh SE 1.2 mph1.9 kmh 28.97 in981.0 mb - 0.00 in0.0 mm 0.00 in0.0 mm
04:30 AM 14.7°F-9.6°C 13.3°F-10.4°C 94% Calm Calm 2.3 mph3.7 kmh 28.96 in980.7 mb - 0.00 in0.0 mm 0.00 in0.0 mm
04:45 AM 14.5°F-9.7°C 13.6°F-10.2°C 96% 1.2 mph SE1.9 kmh SE 1.2 mph1.9 kmh 28.95 in980.4 mb - 0.00 in0.0 mm 0.00 in0.0 mm
05:00 AM 14.5°F-9.7°C 14.0°F-10.0°C 98% 2.3 mph SSE3.7 kmh SSE 2.3 mph3.7 kmh 28.95 in980.4 mb - 0.00 in0.0 mm 0.00 in0.0 mm
05:15 AM 14.7°F-9.6°C 14.2°F-9.9°C 98% Calm Calm -- 28.92 in979.3 mb - 0.00 in0.0 mm 0.00 in0.0 mm
05:30 AM 14.9°F-9.5°C 14.7°F-9.6°C 99% Calm Calm -- 28.90 in978.7 mb - 0.00 in0.0 mm 0.00 in0.0 mm
05:45 AM 15.3°F-9.3°C 15.1°F-9.4°C 99% Calm Calm 1.2 mph1.9 kmh 28.90 in978.7 mb - 0.00 in0.0 mm 0.00 in0.0 mm
06:00 AM 15.6°F-9.1°C 15.4°F-9.2°C 99% Calm Calm 1.2 mph1.9 kmh 28.89 in978.3 mb - 0.00 in0.0 mm 0.00 in0.0 mm
06:15 AM 16.2°F-8.8°C 16.0°F-8.9°C 99% Calm Calm -- 28.89 in978.3 mb - 0.00 in0.0 mm 0.00 in0.0 mm
06:30 AM 16.7°F-8.5°C 16.5°F-8.6°C 99% Calm Calm -- 28.86 in977.3 mb - 0.00 in0.0 mm 0.00 in0.0 mm
06:45 AM 17.6°F-8.0°C 17.4°F-8.1°C 99% Calm Calm -- 28.86 in977.3 mb - 0.00 in0.0 mm 0.00 in0.0 mm
07:00 AM 18.7°F-7.4°C 18.5°F-7.5°C 99% Calm Calm 1.2 mph1.9 kmh 28.85 in977.0 mb - 0.00 in0.0 mm 0.00 in0.0 mm
07:15 AM 19.8°F-6.8°C 19.6°F-6.9°C 99% 1.2 mph SE1.9 kmh SE 3.5 mph5.6 kmh 28.84 in976.6 mb - 0.00 in0.0 mm 0.00 in0.0 mm
07:30 AM 20.5°F-6.4°C 20.3°F-6.5°C 99% Calm Calm 2.3 mph3.7 kmh 28.81 in975.6 mb - 0.00 in0.0 mm 0.00 in0.0 mm
07:45 AM 21.0°F-6.1°C 20.8°F-6.2°C 99% Calm Calm -- 28.82 in976.0 mb - 0.00 in0.0 mm 0.00 in0.0 mm
08:00 AM 21.6°F-5.8°C 21.4°F-5.9°C 99% Calm Calm -- 28.81 in975.6 mb - 0.00 in0.0 mm 0.00 in0.0 mm
08:15 AM 22.6°F-5.2°C 22.4°F-5.3°C 99% Calm Calm -- 28.80 in975.3 mb - 0.00 in0.0 mm 0.00 in0.0 mm
08:30 AM 23.4°F-4.8°C 23.2°F-4.9°C 99% Calm Calm 1.2 mph1.9 kmh 28.80 in975.3 mb - 0.00 in0.0 mm 0.00 in0.0 mm
08:45 AM 23.9°F-4.5°C 23.7°F-4.6°C 99% Calm Calm -- 28.79 in974.9 mb - 0.00 in0.0 mm 0.00 in0.0 mm
09:00 AM 24.8°F-4.0°C 24.6°F-4.1°C 99% Calm Calm -- 28.78 in974.6 mb - 0.00 in0.0 mm 0.00 in0.0 mm
09:15 AM 25.3°F-3.7°C 25.1°F-3.8°C 99% Calm Calm -- 28.76 in973.9 mb - 0.00 in0.0 mm 0.00 in0.0 mm
09:30 AM 26.2°F-3.2°C 26.0°F-3.3°C 99% Calm Calm -- 28.75 in973.6 mb - 0.00 in0.0 mm 0.00 in0.0 mm
09:45 AM 26.6°F-3.0°C 26.4°F-3.1°C 99% 1.2 mph SE1.9 kmh SE 1.2 mph1.9 kmh 28.75 in973.6 mb - 0.00 in0.0 mm 0.00 in0.0 mm
10:00 AM 27.3°F-2.6°C 27.1°F-2.7°C 99% 2.3 mph SE3.7 kmh SE 2.3 mph3.7 kmh 28.74 in973.2 mb - 0.00 in0.0 mm 0.00 in0.0 mm
10:15 AM 27.9°F-2.3°C 27.7°F-2.4°C 99% Calm Calm 2.3 mph3.7 kmh 28.72 in972.6 mb - 0.00 in0.0 mm 0.00 in0.0 mm
10:30 AM 28.0°F-2.2°C 27.8°F-2.3°C 99% 1.2 mph S1.9 kmh S 2.3 mph3.7 kmh 28.71 in972.2 mb - 0.00 in0.0 mm 0.00 in0.0 mm
10:45 AM 28.3°F-2.1°C 28.0°F-2.2°C 99% 1.2 mph SSE1.9 kmh SSE 2.3 mph3.7 kmh 28.70 in971.9 mb - 0.00 in0.0 mm 0.00 in0.0 mm
11:00 AM 28.6°F-1.9°C 28.4°F-2.0°C 99% Calm Calm -- 28.70 in971.9 mb - 0.00 in0.0 mm 0.00 in0.0 mm
11:15 AM 28.6°F-1.9°C 28.4°F-2.0°C 99% Calm Calm -- 28.69 in971.6 mb - 0.00 in0.0 mm 0.00 in0.0 mm
11:30 AM 28.4°F-2.0°C 28.2°F-2.1°C 99% Calm Calm -- 28.68 in971.2 mb - 0.00 in0.0 mm 0.00 in0.0 mm
11:45 AM 28.4°F-2.0°C 28.2°F-2.1°C 99% 1.2 mph S1.9 kmh S 2.3 mph3.7 kmh 28.67 in970.9 mb - 0.00 in0.0 mm 0.00 in0.0 mm
12:00 PM 28.8°F-1.8°C 28.6°F-1.9°C 99% 2.3 mph SE3.7 kmh SE 3.5 mph5.6 kmh 28.67 in970.9 mb - 0.00 in0.0 mm 0.00 in0.0 mm
12:15 PM 28.8°F-1.8°C 28.6°F-1.9°C 99% Calm Calm -- 28.65 in970.2 mb - 0.00 in0.0 mm 0.00 in0.0 mm
12:30 PM 28.6°F-1.9°C 28.4°F-2.0°C 99% Calm Calm -- 28.65 in970.2 mb - 0.00 in0.0 mm 0.00 in0.0 mm
12:45 PM 28.2°F-2.1°C 28.0°F-2.2°C 99% Calm Calm -- 28.64 in969.9 mb - 0.00 in0.0 mm 0.00 in0.0 mm
01:00 PM 27.9°F-2.3°C 27.7°F-2.4°C 99% Calm Calm -- 28.65 in970.2 mb - 0.00 in0.0 mm 0.00 in0.0 mm
01:15 PM 27.7°F-2.4°C 27.5°F-2.5°C 99% 1.2 mph SE1.9 kmh SE 2.3 mph3.7 kmh 28.65 in970.2 mb - 0.00 in0.0 mm 0.00 in0.0 mm
01:30 PM 27.9°F-2.3°C 27.7°F-2.4°C 99% Calm Calm -- 28.65 in970.2 mb - 0.00 in0.0 mm 0.00 in0.0 mm
01:45 PM 28.0°F-2.2°C 27.8°F-2.3°C 99% Calm Calm -- 28.66 in970.5 mb - 0.00 in0.0 mm 0.00 in0.0 mm
02:00 PM 28.0°F-2.2°C 27.8°F-2.3°C 99% Calm Calm -- 28.67 in970.9 mb - 0.00 in0.0 mm 0.00 in0.0 mm
02:15 PM 27.9°F-2.3°C 27.7°F-2.4°C 99% Calm Calm -- 28.68 in971.2 mb - 0.00 in0.0 mm 0.00 in0.0 mm
02:30 PM 27.7°F-2.4°C 27.5°F-2.5°C 99% Calm Calm -- 28.69 in971.6 mb - 0.00 in0.0 mm 0.00 in0.0 mm
02:45 PM 27.1°F-2.7°C 26.9°F-2.8°C 99% Calm Calm -- 28.70 in971.9 mb - 0.00 in0.0 mm 0.00 in0.0 mm
03:00 PM 26.8°F-2.9°C 26.6°F-3.0°C 99% Calm Calm -- 28.71 in972.2 mb - 0.00 in0.0 mm 0.00 in0.0 mm
03:15 PM 26.6°F-3.0°C 26.4°F-3.1°C 99% Calm Calm -- 28.74 in973.2 mb - 0.00 in0.0 mm 0.00 in0.0 mm
03:30 PM 26.2°F-3.2°C 26.0°F-3.3°C 99% Calm Calm -- 28.75 in973.6 mb - 0.00 in0.0 mm 0.00 in0.0 mm
03:45 PM 25.9°F-3.4°C 25.7°F-3.5°C 99% Calm Calm -- 28.76 in973.9 mb - 0.00 in0.0 mm 0.00 in0.0 mm
04:00 PM 25.5°F-3.6°C 25.3°F-3.7°C 99% Calm Calm -- 28.77 in974.3 mb - 0.00 in0.0 mm 0.00 in0.0 mm
04:15 PM 25.2°F-3.8°C 25.0°F-3.9°C 99% Calm Calm -- 28.80 in975.3 mb - 0.00 in0.0 mm 0.00 in0.0 mm
04:30 PM 24.8°F-4.0°C 24.6°F-4.1°C 99% Calm Calm -- 28.81 in975.6 mb - 0.00 in0.0 mm 0.00 in0.0 mm
04:45 PM 24.4°F-4.2°C 24.2°F-4.3°C 99% Calm Calm -- 28.83 in976.3 mb - 0.00 in0.0 mm 0.00 in0.0 mm
05:00 PM 24.3°F-4.3°C 24.1°F-4.4°C 99% Calm Calm -- 28.84 in976.6 mb - 0.00 in0.0 mm 0.00 in0.0 mm
05:15 PM 23.9°F-4.5°C 23.7°F-4.6°C 99% Calm Calm -- 28.86 in977.3 mb - 0.00 in0.0 mm 0.00 in0.0 mm
05:30 PM 23.5°F-4.7°C 23.2°F-4.9°C 99% Calm Calm -- 28.88 in978.0 mb - 0.00 in0.0 mm 0.00 in0.0 mm
05:45 PM 23.2°F-4.9°C 23.0°F-5.0°C 99% Calm Calm -- 28.89 in978.3 mb - 0.00 in0.0 mm 0.00 in0.0 mm
06:00 PM 23.0°F-5.0°C 22.8°F-5.1°C 99% Calm Calm -- 28.90 in978.7 mb - 0.00 in0.0 mm 0.00 in0.0 mm
06:15 PM 22.7°F-5.2°C 22.4°F-5.3°C 99% Calm Calm -- 28.92 in979.3 mb - 0.00 in0.0 mm 0.00 in0.0 mm
06:30 PM 22.5°F-5.3°C 22.3°F-5.4°C 99% Calm Calm -- 28.93 in979.7 mb - 0.00 in0.0 mm 0.00 in0.0 mm
06:45 PM 21.7°F-5.7°C 21.5°F-5.8°C 99% Calm Calm -- 28.94 in980.0 mb - 0.00 in0.0 mm 0.00 in0.0 mm
07:00 PM 21.2°F-6.0°C 21.0°F-6.1°C 99% Calm Calm -- 28.96 in980.7 mb - 0.00 in0.0 mm 0.00 in0.0 mm
07:15 PM 20.3°F-6.5°C 20.1°F-6.6°C 99% Calm Calm -- 28.98 in981.4 mb - 0.00 in0.0 mm 0.00 in0.0 mm
07:30 PM 19.6°F-6.9°C 19.4°F-7.0°C 99% Calm Calm -- 28.99 in981.7 mb - 0.00 in0.0 mm 0.00 in0.0 mm
07:45 PM 18.9°F-7.3°C 18.5°F-7.5°C 98% Calm Calm -- 29.00 in982.1 mb - 0.00 in0.0 mm 0.00 in0.0 mm
08:00 PM 18.3°F-7.6°C 17.6°F-8.0°C 97% Calm Calm -- 29.01 in982.4 mb - 0.00 in0.0 mm 0.00 in0.0 mm
08:15 PM 17.8°F-7.9°C 17.3°F-8.2°C 98% Calm Calm -- 29.04 in983.4 mb - 0.00 in0.0 mm 0.00 in0.0 mm
08:30 PM 17.6°F-8.0°C 17.1°F-8.3°C 98% Calm Calm -- 29.05 in983.7 mb - 0.00 in0.0 mm 0.00 in0.0 mm
08:45 PM 17.6°F-8.0°C 17.4°F-8.1°C 99% Calm Calm -- 29.05 in983.7 mb - 0.00 in0.0 mm 0.00 in0.0 mm
09:00 PM 17.4°F-8.1°C 16.9°F-8.4°C 98% Calm Calm -- 29.06 in984.1 mb - 0.00 in0.0 mm 0.00 in0.0 mm
09:15 PM 17.2°F-8.2°C 16.7°F-8.5°C 98% Calm Calm -- 29.07 in984.4 mb - 0.00 in0.0 mm 0.00 in0.0 mm
09:30 PM 17.2°F-8.2°C 16.7°F-8.5°C 98% Calm Calm -- 29.08 in984.8 mb - 0.00 in0.0 mm 0.00 in0.0 mm
09:45 PM 17.1°F-8.3°C 16.4°F-8.7°C 97% Calm Calm -- 29.08 in984.8 mb - 0.00 in0.0 mm 0.00 in0.0 mm
10:00 PM 16.7°F-8.5°C 16.2°F-8.8°C 98% Calm Calm -- 29.09 in985.1 mb - 0.00 in0.0 mm 0.00 in0.0 mm
10:15 PM 15.7°F-9.1°C 14.8°F-9.6°C 96% Calm Calm -- 29.11 in985.8 mb - 0.00 in0.0 mm 0.00 in0.0 mm
10:30 PM 14.3°F-9.8°C 13.1°F-10.5°C 95% Calm Calm -- 29.12 in986.1 mb - 0.00 in0.0 mm 0.00 in0.0 mm
10:45 PM 13.1°F-10.5°C 11.9°F-11.2°C 95% Calm Calm -- 29.12 in986.1 mb - 0.00 in0.0 mm 0.00 in0.0 mm
11:00 PM 12.6°F-10.8°C 11.9°F-11.2°C 97% Calm Calm -- 29.14 in986.8 mb - 0.00 in0.0 mm 0.00 in0.0 mm
11:15 PM 11.8°F-11.2°C 11.1°F-11.6°C 97% Calm Calm -- 29.14 in986.8 mb - 0.00 in0.0 mm 0.00 in0.0 mm
11:30 PM 11.0°F-11.7°C 10.3°F-12.1°C 97% Calm Calm -- 29.14 in986.8 mb - 0.00 in0.0 mm 0.00 in0.0 mm
11:45 PM 10.2°F-12.1°C 9.5°F-12.5°C 97% Calm Calm -- 29.14 in986.8 mb - 0.00 in0.0 mm 0.00 in0.0 mm